LKMT/OSR METAR and TAF weather

Enter ICAO airport designator
Station Type Date Time Source
LKMT METAR 2021/03/04 21:04 UTC NOAA

LKMT 042104Z 29007KT 6000 -RA BKN017 OVC025 06/05 Q1013 RMK REG QNH 1010


Station Type Date Time Source
LKMT Decoded METAR 2021/03/04 21:04 UTC NOAA

Ostrava / Mosnov, Czech Republic (LKMT) 49-41N 018-07E 256M
Mar 04, 2021 - 04:04 PM EST / 2021.03.04 2104 UTC
Wind: from the WNW (290 degrees) at 8 MPH (7 KT):0
Visibility: 3 mile(s):0
Sky conditions: overcast
Weather: light rain
Temperature: 42 F (6 C)
Dew Point: 41 F (5 C)
Relative Humidity: 93%
Pressure (altimeter): 29.91 in. Hg (1013 hPa)
ob: LKMT 042104Z 29007KT 6000 -RA BKN017 OVC025 06/05 Q1013 RMK REG QNH 1010
cycle: 21

Station Type Date Time Source
LKMT TAF 2021/03/04 18:09 UTC NOAA

TAF LKMT 041700Z 0418/0600 24012KT 4000 BR BKN025
TEMPO 0418/0504 2000 -RA BR BKN012 PROB30
TEMPO 0418/0504 1200 RA BR BKN006
BECMG 0420/0422 36010KT
TEMPO 0504/0516 01012G24KT 2000 SN BKN010 PROB30
TEMPO 0504/0510 1200 SHSN BKN005
BECMG 0516/0518 9999 SCT025 PROB30
TEMPO 0518/0600 4000 SHSN BKN012

Example: see airport list